Time;durP1;ratioP1;P1;durP2;ratioP2;P2;SDS_P1;SDS_P2;PMS_P1;PMS_P2;Temp;Humidity;BMP_temperature;BMP_pressure;BME280_temperature;BME280_humidity;BME280_pressure;Samples;Min_cycle;Max_cycle;Signal;HPM_P1;HPM_P2
2021/03/15 00:00:17;;;;;;;;;;;;;;;;;;5086032;28;874;-61
2021/03/15 00:02:43;;;;;;;;;;;;;;;;;;5064862;28;1893;-61
2021/03/15 00:05:10;;;;;;;;;;;;;;;;;;5060867;28;842;-61
2021/03/15 00:07:35;;;;;;;;;;;;;;;;;;5065073;28;835;-61
2021/03/15 00:10:01;;;;;;;;;;;;;;;;;;5063661;28;1494;-61
2021/03/15 00:12:27;;;;;;;;;;;;;;;;;;5047105;28;1093;-62
2021/03/15 00:14:52;;;;;;;;;;;;;;;;;;5046662;28;843;-62
2021/03/15 00:17:17;;;;;;;;;;;;;;;;;;5061875;28;1073;-61
2021/03/15 00:19:43;;;;;;;;;;;;;;;;;;5065376;28;970;-61
2021/03/15 00:22:08;;;;;;;;;;;;;;;;;;5066192;28;1885;-61
2021/03/15 00:24:33;;;;;;;;;;;;;;;;;;5065912;28;878;-62
2021/03/15 00:26:59;;;;;;;;;;;;;;;;;;5065643;28;954;-62
2021/03/15 00:29:24;;;;;;;;;;;;;;;;;;5066345;28;838;-62
2021/03/15 00:31:50;;;;;;;;;;;;;;;;;;5066611;28;874;-62
2021/03/15 00:34:15;;;;;;;;;;;;;;;;;;5065624;28;974;-61
2021/03/15 00:36:42;;;;;;;;;;;;;;;;;;5065663;28;877;-62
2021/03/15 00:39:07;;;;;;;;;;;;;;;;;;5065659;28;931;-62
2021/03/15 00:41:32;;;;;;;;;;;;;;;;;;5064830;28;1889;-62
2021/03/15 00:43:58;;;;;;;;;;;;;;;;;;5066451;28;843;-62
2021/03/15 00:46:23;;;;;;;;;;;;;;;;;;5066848;28;890;-62
2021/03/15 00:48:48;;;;;;;;;;;;;;;;;;5065427;28;1481;-62
2021/03/15 00:51:14;;;;;;;;;;;;;;;;;;5048666;28;1149;-62
2021/03/15 00:53:39;;;;;;;;;;;;;;;;;;5066146;28;1002;-62
2021/03/15 00:56:04;;;;;;;;;;;;;;;;;;5059890;28;1754;-61
2021/03/15 00:58:30;;;;;;;;;;;;;;;;;;5093595;28;862;-61
2021/03/15 01:00:55;;;;;;;;;;;;;;;;;;5064727;28;994;-62
2021/03/15 01:03:21;;;;;;;;;;;;;;;;;;5066069;28;1898;-61
2021/03/15 01:05:51;;;;;;;;;;;;;;;;;;5064935;28;819;-61
2021/03/15 01:08:17;;;;;;;;;;;;;;;;;;5065839;28;830;-61
2021/03/15 01:10:44;;;;;;;;;;;;;;;;;;5066794;28;815;-61
2021/03/15 01:13:10;;;;;;;;;;;;;;;;;;5066768;28;883;-61
2021/03/15 01:15:36;;;;;;;;;;;;;;;;;;5066802;28;843;-62
2021/03/15 01:18:02;;;;;;;;;;;;;;;;;;5048181;28;1458;-61
2021/03/15 01:20:27;;;;;;;;;;;;;;;;;;5045178;28;990;-62
2021/03/15 01:22:55;;;;;;;;;;;;;;;;;;5044774;28;1972;-62
2021/03/15 01:25:29;;;;;;;;;;;;;;;;;;5045130;28;974;-61
2021/03/15 01:27:54;;;;;;;;;;;;;;;;;;5045003;28;875;-62
2021/03/15 01:30:22;;;;;;;;;;;;;;;;;;5045722;28;650;-61
2021/03/15 01:32:47;;;;;;;;;;;;;;;;;;5045143;28;942;-61
2021/03/15 01:35:12;;;;;;;;;;;;;;;;;;5044966;28;874;-61
2021/03/15 01:37:38;;;;;;;;;;;;;;;;;;5046470;28;981;-61
2021/03/15 01:40:04;;;;;;;;;;;;;;;;;;5047923;28;835;-62
2021/03/15 01:42:29;;;;;;;;;;;;;;;;;;5051178;28;1886;-62
2021/03/15 01:44:55;;;;;;;;;;;;;;;;;;5068325;28;882;-61
2021/03/15 01:47:20;;;;;;;;;;;;;;;;;;5069020;28;926;-61
2021/03/15 01:49:46;;;;;;;;;;;;;;;;;;5068591;28;878;-61
2021/03/15 01:52:12;;;;;;;;;;;;;;;;;;5068293;28;974;-61
2021/03/15 01:54:37;;;;;;;;;;;;;;;;;;5087474;28;1157;-61
2021/03/15 01:57:03;;;;;;;;;;;;;;;;;;5088343;28;949;-62
2021/03/15 01:59:28;;;;;;;;;;;;;;;;;;5088171;28;898;-62
2021/03/15 02:01:54;;;;;;;;;;;;;;;;;;5087810;28;1898;-61
2021/03/15 02:04:22;;;;;;;;;;;;;;;;;;5088473;28;818;-62
2021/03/15 02:06:49;;;;;;;;;;;;;;;;;;5088287;28;932;-61
2021/03/15 02:09:14;;;;;;;;;;;;;;;;;;5087930;28;854;-62
2021/03/15 02:11:46;;;;;;;;;;;;;;;;;;5088162;28;904;-61
2021/03/15 02:14:20;;;;;;;;;;;;;;;;;;5087649;28;917;-61
2021/03/15 02:17:05;;;;;;;;;;;;;;;;;;5070467;28;1314;-59
2021/03/15 02:19:49;;;;;;;;;;;;;;;;;;5048861;28;1342;-61
2021/03/15 02:22:18;;;;;;;;;;;;;;;;;;5063058;28;1957;-61
2021/03/15 02:24:55;;;;;;;;;;;;;;;;;;5060280;28;1003;-61
2021/03/15 02:27:27;;;;;;;;;;;;;;;;;;5068319;28;851;-61
2021/03/15 02:30:02;;;;;;;;;;;;;;;;;;5067919;28;835;-62
2021/03/15 02:32:46;;;;;;;;;;;;;;;;;;5061662;28;1258;-61
2021/03/15 02:35:14;;;;;;;;;;;;;;;;;;5047916;28;905;-61
2021/03/15 02:37:42;;;;;;;;;;;;;;;;;;5047556;28;827;-61
2021/03/15 02:40:09;;;;;;;;;;;;;;;;;;5046794;28;909;-62
2021/03/15 02:42:35;;;;;;;;;;;;;;;;;;5046852;28;1961;-61
2021/03/15 02:45:00;;;;;;;;;;;;;;;;;;5046922;28;946;-61
2021/03/15 02:47:27;;;;;;;;;;;;;;;;;;5046495;28;815;-62
2021/03/15 02:49:55;;;;;;;;;;;;;;;;;;5046758;28;1141;-62
2021/03/15 02:52:23;;;;;;;;;;;;;;;;;;5047133;28;917;-61
2021/03/15 02:54:49;;;;;;;;;;;;;;;;;;5084128;28;1162;-61
2021/03/15 02:57:18;;;;;;;;;;;;;;;;;;5076215;28;1526;-61
2021/03/15 02:59:46;;;;;;;;;;;;;;;;;;5046763;28;902;-61
2021/03/15 03:02:12;;;;;;;;;;;;;;;;;;5046216;28;1906;-60
2021/03/15 03:04:38;;;;;;;;;;;;;;;;;;5045090;28;934;-61
2021/03/15 03:07:05;;;;;;;;;;;;;;;;;;5046684;28;874;-61
2021/03/15 03:09:31;;;;;;;;;;;;;;;;;;5046321;28;902;-62
2021/03/15 03:11:57;;;;;;;;;;;;;;;;;;5046391;28;820;-62
2021/03/15 03:14:25;;;;;;;;;;;;;;;;;;5046707;28;857;-62
2021/03/15 03:16:51;;;;;;;;;;;;;;;;;;5046836;28;831;-62
2021/03/15 03:19:18;;;;;;;;;;;;;;;;;;5046393;28;914;-61
2021/03/15 03:21:45;;;;;;;;;;;;;;;;;;5045768;28;1992;-61
2021/03/15 03:24:11;;;;;;;;;;;;;;;;;;5047237;28;1077;-62
2021/03/15 03:26:37;;;;;;;;;;;;;;;;;;5046106;28;859;-62
2021/03/15 03:29:04;;;;;;;;;;;;;;;;;;5046101;28;856;-62
2021/03/15 03:31:34;;;;;;;;;;;;;;;;;;5046242;28;839;-61
2021/03/15 03:34:00;;;;;;;;;;;;;;;;;;5046218;28;939;-62
2021/03/15 03:36:26;;;;;;;;;;;;;;;;;;5045832;28;902;-62
2021/03/15 03:38:52;;;;;;;;;;;;;;;;;;5047254;28;923;-61
2021/03/15 03:41:18;;;;;;;;;;;;;;;;;;5047060;28;1890;-62
2021/03/15 03:43:44;;;;;;;;;;;;;;;;;;5047448;28;827;-62
2021/03/15 03:46:09;;;;;;;;;;;;;;;;;;5046872;28;886;-62
2021/03/15 03:48:35;;;;;;;;;;;;;;;;;;5045721;28;917;-62
2021/03/15 03:51:01;;;;;;;;;;;;;;;;;;5045648;28;1593;-62
2021/03/15 03:53:35;;;;;;;;;;;;;;;;;;5061162;28;1152;-62
2021/03/15 03:56:10;;;;;;;;;;;;;;;;;;5071960;28;1161;-62
2021/03/15 03:58:39;;;;;;;;;;;;;;;;;;5067146;28;946;-62
2021/03/15 04:01:07;;;;;;;;;;;;;;;;;;5064896;28;791;-61
2021/03/15 04:03:33;;;;;;;;;;;;;;;;;;5065157;28;1898;-62
2021/03/15 04:06:00;;;;;;;;;;;;;;;;;;5065612;28;894;-62
2021/03/15 04:08:31;;;;;;;;;;;;;;;;;;5066857;28;913;-62
2021/03/15 04:10:57;;;;;;;;;;;;;;;;;;5066745;28;902;-62
2021/03/15 04:13:24;;;;;;;;;;;;;;;;;;5067045;28;913;-62
2021/03/15 04:15:49;;;;;;;;;;;;;;;;;;5069013;28;1487;-62
2021/03/15 04:18:16;;;;;;;;;;;;;;;;;;5054641;28;846;-62
2021/03/15 04:20:43;;;;;;;;;;;;;;;;;;5061578;28;827;-62
2021/03/15 04:23:16;;;;;;;;;;;;;;;;;;5059162;28;1890;-62
2021/03/15 04:25:44;;;;;;;;;;;;;;;;;;5066062;28;863;-61
2021/03/15 04:28:10;;;;;;;;;;;;;;;;;;5080242;28;1415;-62
2021/03/15 04:30:37;;;;;;;;;;;;;;;;;;5087294;28;913;-61
2021/03/15 04:33:02;;;;;;;;;;;;;;;;;;5048214;28;963;-61
2021/03/15 04:35:32;;;;;;;;;;;;;;;;;;5058194;28;898;-61
2021/03/15 04:37:58;;;;;;;;;;;;;;;;;;5045893;28;807;-62
2021/03/15 04:40:25;;;;;;;;;;;;;;;;;;5045416;28;827;-61
2021/03/15 04:42:51;;;;;;;;;;;;;;;;;;5045788;28;1981;-61
2021/03/15 04:45:17;;;;;;;;;;;;;;;;;;5044823;28;1087;-61
2021/03/15 04:47:42;;;;;;;;;;;;;;;;;;5044619;28;906;-61
2021/03/15 04:50:09;;;;;;;;;;;;;;;;;;5044538;28;843;-61
2021/03/15 04:52:36;;;;;;;;;;;;;;;;;;5044453;28;807;-61
2021/03/15 04:55:01;;;;;;;;;;;;;;;;;;5045286;28;910;-62
2021/03/15 04:57:28;;;;;;;;;;;;;;;;;;5065282;28;1084;-61
2021/03/15 04:59:54;;;;;;;;;;;;;;;;;;5073364;28;1158;-62
2021/03/15 05:02:21;;;;;;;;;;;;;;;;;;5065369;28;1971;-61
2021/03/15 05:04:48;;;;;;;;;;;;;;;;;;5062731;28;1452;-61
2021/03/15 05:07:13;;;;;;;;;;;;;;;;;;5066381;28;973;-61
2021/03/15 05:09:39;;;;;;;;;;;;;;;;;;5064688;28;935;-61
2021/03/15 05:12:06;;;;;;;;;;;;;;;;;;5067658;28;867;-61
2021/03/15 05:14:32;;;;;;;;;;;;;;;;;;5069185;28;887;-61
2021/03/15 05:16:58;;;;;;;;;;;;;;;;;;5068900;28;902;-61
2021/03/15 05:19:24;;;;;;;;;;;;;;;;;;5068396;28;902;-62
2021/03/15 05:21:49;;;;;;;;;;;;;;;;;;5070569;28;1886;-61
2021/03/15 05:24:15;;;;;;;;;;;;;;;;;;5069895;28;850;-61
2021/03/15 05:26:41;;;;;;;;;;;;;;;;;;5069888;28;918;-61
2021/03/15 05:29:08;;;;;;;;;;;;;;;;;;5068282;28;1601;-61
2021/03/15 05:31:37;;;;;;;;;;;;;;;;;;5055754;28;1082;-62
2021/03/15 05:34:03;;;;;;;;;;;;;;;;;;5068124;28;1131;-61
2021/03/15 05:36:30;;;;;;;;;;;;;;;;;;5050194;28;839;-61
2021/03/15 05:38:56;;;;;;;;;;;;;;;;;;5048737;28;916;-62
2021/03/15 05:41:29;;;;;;;;;;;;;;;;;;5049640;28;1951;-61
2021/03/15 05:44:19;;;;;;;;;;;;;;;;;;5048086;28;895;-61
2021/03/15 05:46:57;;;;;;;;;;;;;;;;;;5048665;28;1069;-61
2021/03/15 05:49:41;;;;;;;;;;;;;;;;;;5064949;28;1108;-62
2021/03/15 05:52:25;;;;;;;;;;;;;;;;;;5068577;28;850;-61
2021/03/15 05:55:09;;;;;;;;;;;;;;;;;;5087161;28;1110;-61
2021/03/15 05:57:45;;;;;;;;;;;;;;;;;;5087959;28;827;-61
2021/03/15 06:00:11;;;;;;;;;;;;;;;;;;5088148;28;889;-61
2021/03/15 06:02:42;;;;;;;;;;;;;;;;;;5047450;28;1952;-61
2021/03/15 06:05:20;;;;;;;;;;;;;;;;;;5047947;28;879;-61
2021/03/15 06:07:47;;;;;;;;;;;;;;;;;;5049053;28;831;-61
2021/03/15 06:10:20;;;;;;;;;;;;;;;;;;5055867;28;860;-61
2021/03/15 06:12:47;;;;;;;;;;;;;;;;;;5067204;28;874;-61
2021/03/15 06:15:13;;;;;;;;;;;;;;;;;;5067282;28;870;-61
2021/03/15 06:17:39;;;;;;;;;;;;;;;;;;5067903;28;823;-61
2021/03/15 06:20:04;;;;;;;;;;;;;;;;;;5067741;28;1088;-61
2021/03/15 06:22:30;;;;;;;;;;;;;;;;;;5065079;28;1889;-61
2021/03/15 06:24:56;;;;;;;;;;;;;;;;;;5055124;28;1049;-61
2021/03/15 06:27:23;;;;;;;;;;;;;;;;;;5068979;28;843;-61
2021/03/15 06:29:48;;;;;;;;;;;;;;;;;;5075403;28;1167;-61
2021/03/15 06:32:14;;;;;;;;;;;;;;;;;;5088794;28;807;-61
2021/03/15 06:34:40;;;;;;;;;;;;;;;;;;5077776;28;934;-62
2021/03/15 06:37:06;;;;;;;;;;;;;;;;;;5068421;28;1316;-62
2021/03/15 06:39:32;;;;;;;;;;;;;;;;;;5068752;28;954;-62
2021/03/15 06:41:58;;;;;;;;;;;;;;;;;;5071144;28;1885;-62
2021/03/15 06:44:24;;;;;;;;;;;;;;;;;;5072802;28;1147;-63
2021/03/15 06:46:50;;;;;;;;;;;;;;;;;;5069037;28;883;-62
2021/03/15 06:49:15;;;;;;;;;;;;;;;;;;5068290;28;913;-62
2021/03/15 06:52:00;;;;;;;;;;;;;;;;;;5067237;28;850;-62
2021/03/15 06:54:25;;;;;;;;;;;;;;;;;;5083221;28;1163;-62
2021/03/15 06:57:14;;;;;;;;;;;;;;;;;;5088904;28;882;-61
2021/03/15 06:59:46;;;;;;;;;;;;;;;;;;5082459;28;1309;-61
2021/03/15 07:02:17;;;;;;;;;;;;;;;;;;5074868;28;1963;-62
2021/03/15 07:04:42;;;;;;;;;;;;;;;;;;5065497;28;1174;-62
2021/03/15 07:07:08;;;;;;;;;;;;;;;;;;5066842;28;1327;-62
2021/03/15 07:09:34;;;;;;;;;;;;;;;;;;5067042;28;1351;-62
2021/03/15 07:12:03;;;;;;;;;;;;;;;;;;5069678;28;1226;-62
2021/03/15 07:14:29;;;;;;;;;;;;;;;;;;5068408;28;1245;-61
2021/03/15 07:16:58;;;;;;;;;;;;;;;;;;5067075;28;1165;-62
2021/03/15 07:19:24;;;;;;;;;;;;;;;;;;5065978;28;1237;-62
2021/03/15 07:21:49;;;;;;;;;;;;;;;;;;5067438;28;1878;-62
2021/03/15 07:24:15;;;;;;;;;;;;;;;;;;5066498;28;1291;-61
2021/03/15 07:26:44;;;;;;;;;;;;;;;;;;5066567;28;1304;-62
2021/03/15 07:29:11;;;;;;;;;;;;;;;;;;5065994;28;1264;-61
2021/03/15 07:31:37;;;;;;;;;;;;;;;;;;5066395;28;1316;-62
2021/03/15 07:34:03;;;;;;;;;;;;;;;;;;5065856;28;1233;-62
2021/03/15 07:36:29;;;;;;;;;;;;;;;;;;5067565;28;807;-62
2021/03/15 07:38:55;;;;;;;;;;;;;;;;;;5067463;28;803;-62
2021/03/15 07:41:21;;;;;;;;;;;;;;;;;;5066597;28;1959;-62
2021/03/15 07:43:47;;;;;;;;;;;;;;;;;;5067445;28;1181;-62
2021/03/15 07:46:19;;;;;;;;;;;;;;;;;;5071737;28;1308;-62
2021/03/15 07:48:45;;;;;;;;;;;;;;;;;;5077195;28;1218;-62
2021/03/15 07:51:10;;;;;;;;;;;;;;;;;;5072151;28;1075;-64
2021/03/15 07:53:42;;;;;;;;;;;;;;;;;;5074590;28;1638;-63
2021/03/15 07:56:09;;;;;;;;;;;;;;;;;;5065937;28;1151;-61
2021/03/15 07:58:36;;;;;;;;;;;;;;;;;;5057840;28;1537;-62
2021/03/15 08:01:03;;;;;;;;;;;;;;;;;;5067155;28;870;-62
2021/03/15 08:03:30;;;;;;;;;;;;;;;;;;5044343;28;2056;-61
2021/03/15 08:05:56;;;;;;;;;;;;;;;;;;5033442;28;1081;-62
2021/03/15 08:08:22;;;;;;;;;;;;;;;;;;5045108;28;815;-61
2021/03/15 08:10:48;;;;;;;;;;;;;;;;;;5032583;28;1019;-62
2021/03/15 08:13:17;;;;;;;;;;;;;;;;;;5046009;28;819;-62
2021/03/15 08:15:45;;;;;;;;;;;;;;;;;;5034176;28;1001;-62
2021/03/15 08:18:14;;;;;;;;;;;;;;;;;;5054737;28;997;-62
2021/03/15 08:20:44;;;;;;;;;;;;;;;;;;5048303;28;903;-61
2021/03/15 08:23:12;;;;;;;;;;;;;;;;;;5044276;28;1974;-62
2021/03/15 08:25:37;;;;;;;;;;;;;;;;;;5044495;28;895;-62
2021/03/15 08:28:04;;;;;;;;;;;;;;;;;;5046124;28;913;-62
2021/03/15 08:30:31;;;;;;;;;;;;;;;;;;5046689;28;823;-63
2021/03/15 08:32:57;;;;;;;;;;;;;;;;;;5037172;28;1185;-63
2021/03/15 08:35:23;;;;;;;;;;;;;;;;;;5026481;28;839;-63
2021/03/15 08:37:50;;;;;;;;;;;;;;;;;;5039784;28;894;-63
2021/03/15 08:40:35;;;;;;;;;;;;;;;;;;5045675;28;902;-63
2021/03/15 08:43:22;;;;;;;;;;;;;;;;;;5046202;28;1989;-62
2021/03/15 08:45:49;;;;;;;;;;;;;;;;;;5047489;28;852;-63
2021/03/15 08:48:15;;;;;;;;;;;;;;;;;;5050360;28;843;-63
2021/03/15 08:50:41;;;;;;;;;;;;;;;;;;5050514;28;819;-63
2021/03/15 08:53:07;;;;;;;;;;;;;;;;;;5054086;28;1157;-63
2021/03/15 08:55:41;;;;;;;;;;;;;;;;;;5070560;28;914;-63
2021/03/15 08:58:27;;;;;;;;;;;;;;;;;;5054216;28;847;-62
2021/03/15 09:00:56;;;;;;;;;;;;;;;;;;5072448;28;1408;-63
2021/03/15 09:03:40;;;;;;;;;;;;;;;;;;5070125;28;1897;-62
2021/03/15 09:06:06;;;;;;;;;;;;;;;;;;5069625;28;818;-63
2021/03/15 09:08:49;;;;;;;;;;;;;;;;;;5070549;28;843;-63
2021/03/15 09:11:35;;;;;;;;;;;;;;;;;;5069451;28;1020;-63
2021/03/15 09:14:16;;;;;;;;;;;;;;;;;;5061220;28;1537;-59
2021/03/15 09:16:58;;;;;;;;;;;;;;;;;;5073094;28;1036;-61
2021/03/15 09:19:26;;;;;;;;;;;;;;;;;;5079923;28;944;-61
2021/03/15 09:21:56;;;;;;;;;;;;;;;;;;5089939;28;1979;-61
2021/03/15 09:24:40;;;;;;;;;;;;;;;;;;5091128;28;850;-61
2021/03/15 09:27:05;;;;;;;;;;;;;;;;;;5055470;28;1870;-61
2021/03/15 09:29:31;;;;;;;;;;;;;;;;;;5071800;28;1369;-60
2021/03/15 09:32:04;;;;;;;;;;;;;;;;;;5081603;28;1389;-60
2021/03/15 09:34:29;;;;;;;;;;;;;;;;;;5088437;28;1710;-61
2021/03/15 09:37:03;;;;;;;;;;;;;;;;;;5069055;28;835;-61
2021/03/15 09:39:29;;;;;;;;;;;;;;;;;;5068847;28;1091;-60
2021/03/15 09:41:56;;;;;;;;;;;;;;;;;;5068512;28;1964;-61
2021/03/15 09:44:27;;;;;;;;;;;;;;;;;;5063293;28;1540;-61
2021/03/15 09:46:53;;;;;;;;;;;;;;;;;;5064617;28;1168;-61
2021/03/15 09:49:36;;;;;;;;;;;;;;;;;;5079404;28;1225;-61
2021/03/15 09:52:10;;;;;;;;;;;;;;;;;;5071917;28;1136;-62
2021/03/15 09:54:42;;;;;;;;;;;;;;;;;;5075112;28;1203;-62
2021/03/15 09:57:08;;;;;;;;;;;;;;;;;;5088715;28;830;-62
2021/03/15 09:59:34;;;;;;;;;;;;;;;;;;5087638;28;1166;-62
2021/03/15 10:01:59;;;;;;;;;;;;;;;;;;5078476;28;1973;-61
2021/03/15 10:04:34;;;;;;;;;;;;;;;;;;5079440;28;1044;-62
2021/03/15 10:07:02;;;;;;;;;;;;;;;;;;5072556;28;1009;-61
2021/03/15 10:09:28;;;;;;;;;;;;;;;;;;5073974;28;1197;-62
2021/03/15 10:11:54;;;;;;;;;;;;;;;;;;5065246;28;1936;-62
2021/03/15 10:14:21;;;;;;;;;;;;;;;;;;5069753;28;1120;-61
2021/03/15 10:17:12;;;;;;;;;;;;;;;;;;5075771;28;1155;-61
2021/03/15 10:19:38;;;;;;;;;;;;;;;;;;5092047;27;1786;-61
2021/03/15 10:22:14;;;;;;;;;;;;;;;;;;5058764;28;1900;-59
2021/03/15 10:24:41;;;;;;;;;;;;;;;;;;5060048;28;1221;-59
2021/03/15 10:27:08;;;;;;;;;;;;;;;;;;5027817;28;1729;-59
2021/03/15 10:29:35;;;;;;;;;;;;;;;;;;5069949;28;1628;-59
2021/03/15 10:32:01;;;;;;;;;;;;;;;;;;5077962;28;1699;-60
2021/03/15 10:34:26;;;;;;;;;;;;;;;;;;5077932;28;1877;-59
2021/03/15 10:36:52;;;;;;;;;;;;;;;;;;5080571;28;1134;-59
2021/03/15 10:39:21;;;;;;;;;;;;;;;;;;5087623;28;1090;-58
2021/03/15 10:41:47;;;;;;;;;;;;;;;;;;5076540;28;1910;-60
2021/03/15 10:44:18;;;;;;;;;;;;;;;;;;5086065;28;1126;-58
2021/03/15 10:46:49;;;;;;;;;;;;;;;;;;5068334;28;886;-59
2021/03/15 10:49:20;;;;;;;;;;;;;;;;;;5074734;28;1165;-59
2021/03/15 10:51:46;;;;;;;;;;;;;;;;;;5073957;28;1791;-62
2021/03/15 10:54:24;;;;;;;;;;;;;;;;;;5069488;28;1877;-61
2021/03/15 10:57:08;;;;;;;;;;;;;;;;;;5080634;28;1150;-58
2021/03/15 10:59:34;;;;;;;;;;;;;;;;;;5052496;28;1222;-61
2021/03/15 11:01:59;;;;;;;;;;;;;;;;;;5073871;28;2294;-59
2021/03/15 11:04:31;;;;;;;;;;;;;;;;;;5066764;28;1520;-58
2021/03/15 11:06:56;;;;;;;;;;;;;;;;;;5074699;28;1437;-60
2021/03/15 11:09:22;;;;;;;;;;;;;;;;;;5089515;28;799;-59
2021/03/15 11:11:56;;;;;;;;;;;;;;;;;;5066912;28;1354;-60
2021/03/15 11:14:22;;;;;;;;;;;;;;;;;;5061264;28;1226;-57
2021/03/15 11:16:58;;;;;;;;;;;;;;;;;;5067981;28;1501;-60
2021/03/15 11:19:24;;;;;;;;;;;;;;;;;;5065325;28;1294;-60
2021/03/15 11:21:50;;;;;;;;;;;;;;;;;;5066945;28;1965;-57
2021/03/15 11:24:15;;;;;;;;;;;;;;;;;;5066927;28;1092;-60
2021/03/15 11:26:43;;;;;;;;;;;;;;;;;;5064880;28;1876;-61
2021/03/15 11:29:09;;;;;;;;;;;;;;;;;;5070669;28;1454;-58
2021/03/15 11:31:34;;;;;;;;;;;;;;;;;;5060488;28;827;-62
2021/03/15 11:34:00;;;;;;;;;;;;;;;;;;5060219;28;941;-60
2021/03/15 11:36:26;;;;;;;;;;;;;;;;;;5069243;28;1213;-62
2021/03/15 11:38:55;;;;;;;;;;;;;;;;;;5069159;28;1166;-60
2021/03/15 11:41:22;;;;;;;;;;;;;;;;;;5078955;28;1138;-62
2021/03/15 11:43:48;;;;;;;;;;;;;;;;;;5074860;28;1894;-61
2021/03/15 11:46:13;;;;;;;;;;;;;;;;;;5074411;28;1063;-61
2021/03/15 11:48:39;;;;;;;;;;;;;;;;;;5074449;28;1218;-62
2021/03/15 11:51:05;;;;;;;;;;;;;;;;;;5075178;28;1154;-60
2021/03/15 11:53:30;;;;;;;;;;;;;;;;;;5072474;28;1218;-61
2021/03/15 11:55:56;;;;;;;;;;;;;;;;;;5082271;28;1147;-60
2021/03/15 11:58:22;;;;;;;;;;;;;;;;;;5068297;28;909;-60
2021/03/15 12:00:47;;;;;;;;;;;;;;;;;;5068046;28;1065;-61
2021/03/15 12:03:13;;;;;;;;;;;;;;;;;;5066554;28;1917;-61
2021/03/15 12:05:38;;;;;;;;;;;;;;;;;;5066615;28;886;-60
2021/03/15 12:08:04;;;;;;;;;;;;;;;;;;5054809;28;2013;-59
2021/03/15 12:10:30;;;;;;;;;;;;;;;;;;5069460;28;1249;-60
2021/03/15 12:12:55;;;;;;;;;;;;;;;;;;5068365;28;1291;-60
2021/03/15 12:15:20;;;;;;;;;;;;;;;;;;5078075;28;1163;-61
2021/03/15 12:17:47;;;;;;;;;;;;;;;;;;5071918;28;1269;-60
2021/03/15 12:20:12;;;;;;;;;;;;;;;;;;5068064;28;1581;-61
2021/03/15 12:22:39;;;;;;;;;;;;;;;;;;5071757;28;1963;-61
2021/03/15 12:25:05;;;;;;;;;;;;;;;;;;5075418;28;1133;-59
2021/03/15 12:27:30;;;;;;;;;;;;;;;;;;5063273;28;1787;-58
2021/03/15 12:29:56;;;;;;;;;;;;;;;;;;5062601;28;1169;-58
2021/03/15 12:32:22;;;;;;;;;;;;;;;;;;5066547;28;1245;-58
2021/03/15 12:34:47;;;;;;;;;;;;;;;;;;5072362;28;1075;-58
2021/03/15 12:37:13;;;;;;;;;;;;;;;;;;5067866;28;1201;-58
2021/03/15 12:39:38;;;;;;;;;;;;;;;;;;5061395;28;1060;-58
2021/03/15 12:42:04;;;;;;;;;;;;;;;;;;5080749;28;1956;-58
2021/03/15 12:44:29;;;;;;;;;;;;;;;;;;5085217;28;838;-60
2021/03/15 12:46:55;;;;;;;;;;;;;;;;;;5072926;28;1402;-60
2021/03/15 12:49:20;;;;;;;;;;;;;;;;;;5046012;28;875;-58
2021/03/15 12:51:46;;;;;;;;;;;;;;;;;;5044650;28;855;-58
2021/03/15 12:54:12;;;;;;;;;;;;;;;;;;5057308;28;1084;-58
2021/03/15 12:56:38;;;;;;;;;;;;;;;;;;5066512;28;847;-58
2021/03/15 12:59:03;;;;;;;;;;;;;;;;;;5066339;28;871;-58
2021/03/15 13:01:29;;;;;;;;;;;;;;;;;;5066224;28;862;-59
2021/03/15 13:03:54;;;;;;;;;;;;;;;;;;5065361;28;1933;-59
2021/03/15 13:06:20;;;;;;;;;;;;;;;;;;5067764;28;858;-60
2021/03/15 13:08:49;;;;;;;;;;;;;;;;;;5066676;28;823;-60
2021/03/15 13:11:14;;;;;;;;;;;;;;;;;;5066188;28;894;-60
2021/03/15 13:13:40;;;;;;;;;;;;;;;;;;5066600;28;882;-60
2021/03/15 13:16:06;;;;;;;;;;;;;;;;;;5063299;28;1240;-58
2021/03/15 13:18:32;;;;;;;;;;;;;;;;;;5065894;28;905;-60
2021/03/15 13:20:57;;;;;;;;;;;;;;;;;;5064915;28;886;-60
2021/03/15 13:23:23;;;;;;;;;;;;;;;;;;5066077;28;1951;-59
2021/03/15 13:25:48;;;;;;;;;;;;;;;;;;5066704;28;950;-60
2021/03/15 13:28:14;;;;;;;;;;;;;;;;;;5066139;28;847;-60
2021/03/15 13:30:39;;;;;;;;;;;;;;;;;;5066391;28;815;-60
2021/03/15 13:33:05;;;;;;;;;;;;;;;;;;5068828;28;835;-59
2021/03/15 13:35:30;;;;;;;;;;;;;;;;;;5068564;28;942;-60
2021/03/15 13:37:55;;;;;;;;;;;;;;;;;;5069603;28;881;-60
2021/03/15 13:40:21;;;;;;;;;;;;;;;;;;5070521;28;1553;-60
2021/03/15 13:42:46;;;;;;;;;;;;;;;;;;5089863;28;1977;-60
2021/03/15 13:45:12;;;;;;;;;;;;;;;;;;5089247;28;826;-60
2021/03/15 13:47:37;;;;;;;;;;;;;;;;;;5089865;28;878;-60
2021/03/15 13:50:03;;;;;;;;;;;;;;;;;;5089590;28;819;-60
2021/03/15 13:52:28;;;;;;;;;;;;;;;;;;5089081;28;976;-60
2021/03/15 13:54:53;;;;;;;;;;;;;;;;;;5067919;28;1062;-61
2021/03/15 13:57:19;;;;;;;;;;;;;;;;;;5070356;28;823;-60
2021/03/15 13:59:44;;;;;;;;;;;;;;;;;;5069375;28;993;-60
2021/03/15 14:02:09;;;;;;;;;;;;;;;;;;5069612;28;1992;-59
2021/03/15 14:04:35;;;;;;;;;;;;;;;;;;5070138;28;878;-58
2021/03/15 14:07:00;;;;;;;;;;;;;;;;;;5051433;28;1545;-60
2021/03/15 14:09:25;;;;;;;;;;;;;;;;;;5059946;28;855;-60
2021/03/15 14:11:51;;;;;;;;;;;;;;;;;;5070160;28;870;-60
2021/03/15 14:14:17;;;;;;;;;;;;;;;;;;5069054;28;907;-60
2021/03/15 14:16:44;;;;;;;;;;;;;;;;;;5068830;28;796;-62
2021/03/15 14:19:10;;;;;;;;;;;;;;;;;;5069395;28;886;-60
2021/03/15 14:21:35;;;;;;;;;;;;;;;;;;5069503;28;874;-60
2021/03/15 14:24:00;;;;;;;;;;;;;;;;;;5069010;28;1894;-59
2021/03/15 14:26:26;;;;;;;;;;;;;;;;;;5068507;28;855;-60
2021/03/15 14:28:51;;;;;;;;;;;;;;;;;;5069975;28;915;-60
2021/03/15 14:31:16;;;;;;;;;;;;;;;;;;5069363;28;930;-59
2021/03/15 14:33:42;;;;;;;;;;;;;;;;;;5067265;28;1488;-59
2021/03/15 14:36:07;;;;;;;;;;;;;;;;;;5068278;28;1147;-60
2021/03/15 14:38:33;;;;;;;;;;;;;;;;;;5069266;28;886;-60
2021/03/15 14:40:58;;;;;;;;;;;;;;;;;;5068511;28;1019;-60
2021/03/15 14:43:24;;;;;;;;;;;;;;;;;;5070438;28;1967;-59
2021/03/15 14:45:50;;;;;;;;;;;;;;;;;;5070000;28;823;-60
2021/03/15 14:48:16;;;;;;;;;;;;;;;;;;5068569;28;866;-60
2021/03/15 14:50:41;;;;;;;;;;;;;;;;;;5069092;28;853;-58
2021/03/15 14:53:07;;;;;;;;;;;;;;;;;;5063918;28;1526;-59
2021/03/15 14:55:33;;;;;;;;;;;;;;;;;;5069778;28;1163;-60
2021/03/15 14:57:58;;;;;;;;;;;;;;;;;;5071477;28;1647;-60
2021/03/15 15:00:23;;;;;;;;;;;;;;;;;;5077930;28;1224;-60
2021/03/15 15:02:49;;;;;;;;;;;;;;;;;;5086585;28;1967;-61
2021/03/15 15:05:15;;;;;;;;;;;;;;;;;;5079674;28;1182;-60
2021/03/15 15:07:41;;;;;;;;;;;;;;;;;;5082286;28;1171;-60
2021/03/15 15:10:07;;;;;;;;;;;;;;;;;;5088184;28;1323;-59
2021/03/15 15:12:32;;;;;;;;;;;;;;;;;;5082093;28;1075;-60
2021/03/15 15:14:57;;;;;;;;;;;;;;;;;;5078614;28;1269;-60
2021/03/15 15:17:23;;;;;;;;;;;;;;;;;;5079256;28;1214;-60
2021/03/15 15:19:49;;;;;;;;;;;;;;;;;;5089629;28;886;-60
2021/03/15 15:22:14;;;;;;;;;;;;;;;;;;5087935;28;1893;-60
2021/03/15 15:24:40;;;;;;;;;;;;;;;;;;5087768;28;917;-59
2021/03/15 15:27:06;;;;;;;;;;;;;;;;;;5087796;28;1037;-59
2021/03/15 15:29:31;;;;;;;;;;;;;;;;;;5065692;28;1514;-60
2021/03/15 15:31:56;;;;;;;;;;;;;;;;;;5078576;28;1490;-60
2021/03/15 15:34:22;;;;;;;;;;;;;;;;;;5087449;28;823;-62
2021/03/15 15:36:47;;;;;;;;;;;;;;;;;;5088393;28;846;-60
2021/03/15 15:39:13;;;;;;;;;;;;;;;;;;5087815;28;890;-59
2021/03/15 15:41:38;;;;;;;;;;;;;;;;;;5087573;28;988;-60
2021/03/15 15:44:04;;;;;;;;;;;;;;;;;;5088109;28;1975;-58
2021/03/15 15:46:29;;;;;;;;;;;;;;;;;;5083033;28;1199;-60
2021/03/15 15:48:55;;;;;;;;;;;;;;;;;;5074355;28;1155;-60
2021/03/15 15:51:20;;;;;;;;;;;;;;;;;;5062053;28;1268;-57
2021/03/15 15:53:46;;;;;;;;;;;;;;;;;;5064607;28;961;-62
2021/03/15 15:56:12;;;;;;;;;;;;;;;;;;5059555;28;1928;-58
2021/03/15 15:58:37;;;;;;;;;;;;;;;;;;5053116;28;915;-58
2021/03/15 16:01:03;;;;;;;;;;;;;;;;;;5047380;28;1218;-57
2021/03/15 16:03:28;;;;;;;;;;;;;;;;;;5046819;28;1898;-59
2021/03/15 16:05:53;;;;;;;;;;;;;;;;;;5069158;28;1000;-58
2021/03/15 16:08:19;;;;;;;;;;;;;;;;;;5078204;28;1243;-57
2021/03/15 16:10:44;;;;;;;;;;;;;;;;;;5077028;28;1345;-57
2021/03/15 16:13:10;;;;;;;;;;;;;;;;;;5072939;28;1489;-58
2021/03/15 16:15:39;;;;;;;;;;;;;;;;;;5075877;28;1159;-57
2021/03/15 16:18:05;;;;;;;;;;;;;;;;;;5073390;28;1142;-58
2021/03/15 16:20:30;;;;;;;;;;;;;;;;;;5077760;28;1143;-59
2021/03/15 16:22:55;;;;;;;;;;;;;;;;;;5072991;28;1955;-59
2021/03/15 16:25:21;;;;;;;;;;;;;;;;;;5054364;28;1225;-59
2021/03/15 16:27:47;;;;;;;;;;;;;;;;;;5046893;28;1037;-59
2021/03/15 16:30:12;;;;;;;;;;;;;;;;;;5046148;28;999;-59
2021/03/15 16:32:43;;;;;;;;;;;;;;;;;;5052877;28;953;-59
2021/03/15 16:35:09;;;;;;;;;;;;;;;;;;5070872;28;1248;-59
2021/03/15 16:37:34;;;;;;;;;;;;;;;;;;5067663;28;1293;-59
2021/03/15 16:40:00;;;;;;;;;;;;;;;;;;5070570;28;1226;-60
2021/03/15 16:42:26;;;;;;;;;;;;;;;;;;5076282;28;1959;-60
2021/03/15 16:44:52;;;;;;;;;;;;;;;;;;5066946;28;839;-60
2021/03/15 16:47:17;;;;;;;;;;;;;;;;;;5067189;28;902;-59
2021/03/15 16:49:43;;;;;;;;;;;;;;;;;;5074403;28;1221;-59
2021/03/15 16:52:09;;;;;;;;;;;;;;;;;;5072870;28;1231;-59
2021/03/15 16:54:34;;;;;;;;;;;;;;;;;;5072866;28;1497;-60
2021/03/15 16:56:59;;;;;;;;;;;;;;;;;;5066931;28;1154;-60
2021/03/15 16:59:25;;;;;;;;;;;;;;;;;;5068427;28;835;-60
2021/03/15 17:01:50;;;;;;;;;;;;;;;;;;5046167;28;1902;-59
2021/03/15 17:04:15;;;;;;;;;;;;;;;;;;5066252;28;858;-59
2021/03/15 17:06:41;;;;;;;;;;;;;;;;;;5048759;28;1035;-60
2021/03/15 17:09:06;;;;;;;;;;;;;;;;;;5050538;28;910;-60
2021/03/15 17:11:32;;;;;;;;;;;;;;;;;;5038646;28;838;-60